createdAt,value
2019-04-27T00:04:16.099Z,11.40
2019-04-27T00:09:22.790Z,11.60
2019-04-27T00:14:33.808Z,11.50
2019-04-27T00:19:44.780Z,11.60
2019-04-27T00:24:56.488Z,11.80
2019-04-27T00:30:06.685Z,11.90
2019-04-27T00:35:18.318Z,11.70
2019-04-27T00:40:57.639Z,11.50
2019-04-27T00:46:07.391Z,11.30
2019-04-27T00:51:15.408Z,11.20
2019-04-27T00:56:28.072Z,11.10
2019-04-27T01:01:40.225Z,10.90
2019-04-27T01:06:54.849Z,10.80
2019-04-27T01:12:09.773Z,10.80
2019-04-27T01:17:19.817Z,10.70
2019-04-27T01:22:34.993Z,10.70
2019-04-27T01:27:52.654Z,10.60
2019-04-27T01:33:10.700Z,10.50
2019-04-27T01:38:29.522Z,10.40
2019-04-27T01:43:48.836Z,10.30
2019-04-27T01:49:06.028Z,10.30
2019-04-27T01:54:32.164Z,10.30
2019-04-27T01:59:55.321Z,10.30
2019-04-27T02:05:20.035Z,10.30
2019-04-27T02:10:34.158Z,10.30
2019-04-27T02:15:46.324Z,10.50
2019-04-27T02:21:04.312Z,10.60
2019-04-27T02:26:22.518Z,10.70
2019-04-27T02:31:42.343Z,10.70
2019-04-27T02:37:10.972Z,10.80
2019-04-27T02:42:25.641Z,10.80
2019-04-27T02:47:45.492Z,10.70
2019-04-27T02:53:04.197Z,10.70
2019-04-27T02:58:22.529Z,10.60
2019-04-27T03:04:06.928Z,10.50
2019-04-27T03:09:32.444Z,10.30
2019-04-27T03:14:51.552Z,10.30
2019-04-27T03:20:11.287Z,10.10
2019-04-27T03:25:33.220Z,10.10
2019-04-27T03:30:53.414Z,10.00
2019-04-27T03:36:14.064Z,10.00
2019-04-27T03:41:25.375Z,10.00
2019-04-27T03:46:53.314Z,10.00
2019-04-27T03:52:10.588Z,10.10
2019-04-27T03:57:36.356Z,10.10
2019-04-27T04:02:57.030Z,10.10
2019-04-27T04:08:55.649Z,10.20
2019-04-27T04:14:21.170Z,10.20
2019-04-27T04:20:04.060Z,10.10
2019-04-27T04:25:19.757Z,10.20
2019-04-27T04:30:44.271Z,10.20
2019-04-27T04:36:06.980Z,10.20
2019-04-27T04:41:27.162Z,10.10
2019-04-27T04:46:44.551Z,10.10
2019-04-27T04:52:02.171Z,10.00
2019-04-27T04:57:22.498Z,10.10
2019-04-27T05:02:40.690Z,10.20
2019-04-27T05:07:55.761Z,10.30
2019-04-27T05:13:13.779Z,10.30
2019-04-27T05:18:30.253Z,10.40
2019-04-27T05:23:49.542Z,10.50
2019-04-27T05:29:05.035Z,10.60
2019-04-27T05:34:17.465Z,10.70
2019-04-27T05:39:40.264Z,10.70
2019-04-27T05:44:52.237Z,10.70
2019-04-27T05:50:21.914Z,10.70
2019-04-27T05:55:45.980Z,10.70
2019-04-27T06:01:00.905Z,10.60
2019-04-27T06:06:20.646Z,10.50
2019-04-27T06:11:37.313Z,10.40
2019-04-27T06:17:05.347Z,10.40
2019-04-27T06:22:53.848Z,10.30
2019-04-27T06:28:19.887Z,10.30
2019-04-27T06:33:44.035Z,10.30
2019-04-27T06:40:10.834Z,10.30
2019-04-27T06:45:30.762Z,10.30
2019-04-27T06:51:29.185Z,10.30
2019-04-27T06:57:14.606Z,10.40
2019-04-27T07:03:37.050Z,10.50
2019-04-27T07:09:22.924Z,10.50
2019-04-27T07:15:21.325Z,10.60
2019-04-27T07:20:33.619Z,10.60
2019-04-27T07:30:38.604Z,10.50
2019-04-27T07:36:44.142Z,10.40
2019-04-27T07:43:46.076Z,10.40
2019-04-27T07:51:56.793Z,10.50
2019-04-27T07:58:06.385Z,10.60
2019-04-27T08:03:52.844Z,10.70
2019-04-27T08:09:52.224Z,10.60
2019-04-27T08:16:12.095Z,10.50
2019-04-27T08:21:51.709Z,10.30
2019-04-27T08:27:22.797Z,10.20
2019-04-27T09:01:54.667Z,10.10
2019-04-27T09:07:36.179Z,10.30
2019-04-27T09:13:06.737Z,10.40
2019-04-27T09:19:16.766Z,10.40
2019-04-27T09:25:04.883Z,10.50
2019-04-27T09:30:51.691Z,10.40
2019-04-27T09:43:48.648Z,10.10
2019-04-27T09:50:39.054Z,9.70
2019-04-27T09:58:55.820Z,9.60
2019-04-27T10:04:53.522Z,9.50
2019-04-27T10:14:11.638Z,9.50
2019-04-27T10:26:26.854Z,9.60
2019-04-27T10:31:40.489Z,9.60
2019-04-27T10:37:22.360Z,9.60
2019-04-27T11:36:37.529Z,9.60
2019-04-27T11:42:04.217Z,9.10
2019-04-27T11:47:36.864Z,8.80
2019-04-27T12:09:42.130Z,8.60
2019-04-27T12:14:48.390Z,9.70
2019-04-27T12:20:36.735Z,10.00
2019-04-27T12:27:01.879Z,10.00
2019-04-27T12:33:01.287Z,10.20
2019-04-27T12:39:48.250Z,10.20
2019-04-27T13:18:55.661Z,10.30
2019-04-27T13:24:58.940Z,13.10
2019-04-27T13:30:32.406Z,12.90
2019-04-27T13:52:47.758Z,12.80
2019-04-27T13:57:54.537Z,13.20
2019-04-27T14:02:54.628Z,13.10
2019-04-27T14:08:02.708Z,13.10
2019-04-27T14:13:20.637Z,12.60
2019-04-27T14:18:30.039Z,12.40
2019-04-27T14:23:38.337Z,12.20
2019-04-27T14:28:50.460Z,12.00
2019-04-27T14:34:06.921Z,12.10
2019-04-27T14:39:44.425Z,12.70
2019-04-27T14:44:49.387Z,13.30
2019-04-27T14:50:05.570Z,13.50
2019-04-27T14:55:11.589Z,13.30
2019-04-27T15:00:26.862Z,12.90
2019-04-27T15:06:09.964Z,11.60
2019-04-27T15:24:16.761Z,11.00
2019-04-27T15:30:05.736Z,11.30
2019-04-27T15:35:43.930Z,11.30
2019-04-27T15:40:55.098Z,11.10
2019-04-27T15:47:12.524Z,11.00
2019-04-27T15:52:33.650Z,11.10
2019-04-27T15:57:51.324Z,11.10
2019-04-27T16:03:44.424Z,10.90
2019-04-27T16:10:03.746Z,10.90
2019-04-27T16:15:41.432Z,11.00
2019-04-27T16:21:21.255Z,11.10
2019-04-27T16:26:30.662Z,10.90
2019-04-27T16:32:14.864Z,10.70
2019-04-27T16:38:00.973Z,10.50
2019-04-27T16:43:46.638Z,10.60
2019-04-27T16:49:39.057Z,10.70
2019-04-27T16:54:44.086Z,11.10
2019-04-27T17:00:29.274Z,11.20
2019-04-27T17:05:40.057Z,11.30
2019-04-27T17:12:41.721Z,11.40
2019-04-27T17:16:59.079Z,11.40
2019-04-27T17:22:20.759Z,11.30
2019-04-27T17:31:01.011Z,11.20
2019-04-27T17:36:58.851Z,10.10
2019-04-27T17:47:46.104Z,9.50
2019-04-27T17:56:09.262Z,9.10
2019-04-27T18:01:00.871Z,9.00
2019-04-27T18:08:01.006Z,9.10
2019-04-27T18:16:39.576Z,9.10
2019-04-27T18:30:19.924Z,9.00
2019-04-27T18:36:22.480Z,8.90
2019-04-27T18:41:55.351Z,9.00
2019-04-27T20:03:23.636Z,9.00
2019-04-27T20:08:17.507Z,9.20
2019-04-27T20:13:19.858Z,9.10
2019-04-27T20:19:58.966Z,9.10
2019-04-27T20:26:38.646Z,9.00
2019-04-27T20:34:16.838Z,9.00
2019-04-27T20:40:02.661Z,8.90
2019-04-27T20:47:15.155Z,8.90
2019-04-27T20:54:14.641Z,8.90
2019-04-27T20:59:07.536Z,8.90
2019-04-27T21:04:08.511Z,8.90
2019-04-27T21:17:09.321Z,8.90
2019-04-27T21:26:43.590Z,8.90
2019-04-27T21:31:35.302Z,9.00
2019-04-27T21:44:42.974Z,9.00
2019-04-27T21:54:10.174Z,9.10
2019-04-27T22:06:21.803Z,9.10
2019-04-27T23:11:55.469Z,9.50
